Charleston, SC

2:56 AM EDT en Octubre 31, 2014 (GMT -0400)
Charleston Executive | Change Station
CLOSE
Current Station
Aeropuerto
Location: Charleston,
Altura: 16 ft
Estaciones meteorológicas cercanas

Alt 16 ft 32.70 °N, 80.01 °W | Updated 21 minutes ago

Muy nublado
Muy nublado
61 ° F
Sensación térmica 61 ° F
N
5
Viento Variable Viento desde Norte

Hoy
Alta -- | Baja -- ° F
--% Posibilidad de precipitaciones
Ayer
Alta -- | Baja -- ° F
Precip. -- pul
7:36 AM 6:30 PM
Cuarto creciente, 52% visible
Presión 29.90 pul
Visibilidad 10.0 Millas
Nubes Muy nublado 3700 ft
Punto de rocío 61 ° F
Humedad 100%
Precipitaciones 0.00 pul
Espesor de la nieve No disponible.
UV 0 de una escala de 12
Polen 2.30 de una escala de 12
Calidad del aire No disponible.
Flu Activity No disponible.
METAR KJZI 310635Z AUTO 35004KT 10SM BKN037 16/16 A2990 RMK A02 P000

More Conditions Fewer Conditions

Presión 29.90 pul
Visibilidad 10.0 Millas
Nubes Muy nublado 3700 ft
Punto de rocío 61 ° F
Humedad 100%
Precipitaciones 0.00 pul
Espesor de la nieve No disponible.
UV 0 de una escala de 12
Polen 2.30 de una escala de 12
Calidad del aire No disponible.
Flu Activity No disponible.
METAR KJZI 310635Z AUTO 35004KT 10SM BKN037 16/16 A2990 RMK A02 P000

More Conditions Fewer Conditions

10-Day Weather Forecast

Almanac

Astronomía

Oct. 31, 2014 Salida Puesta
Hora real
Crepúsculo civil
Crepúsculo náutico
Crepúsculo astronómico
Luna
Horas de luz
Horas de luz
Tomorrow will be .
, % of the Moon is Illuminated

Extremos de hoy

Máximos del estado Bajos del estado

Community

WunderPhotos

Upload Photos

1,766,571 ¡fotos cargadas!

WunderBlogs® & News

Nearby

Calidad del aire

  Calidad del aire Índice AQ Contaminante
Not available.

Grosos de nieve

Estación Profundido Altura

Actividad de terremotos

Ciudad Distance Mag. Tiempo y dato
Magnitud mínima muestra es 2,5.

Temperaturas de aguas costeras

Lugar Temperatura

Estaciones meteorológicas cercanas